createdAt,value
2023-08-25T00:00:12.699Z,0.00
2023-08-25T00:01:12.759Z,0.00
2023-08-25T00:02:12.765Z,0.00
2023-08-25T00:03:12.741Z,0.00
2023-08-25T00:04:12.684Z,0.00
2023-08-25T00:05:12.645Z,0.00
2023-08-25T00:06:12.647Z,0.00
2023-08-25T00:07:12.618Z,0.00
2023-08-25T00:08:12.613Z,0.00
2023-08-25T00:09:12.596Z,0.00
2023-08-25T00:10:12.627Z,0.00
2023-08-25T00:11:12.584Z,0.00
2023-08-25T00:12:12.565Z,0.00
2023-08-25T00:13:12.552Z,0.00
2023-08-25T00:14:12.542Z,0.00
2023-08-25T00:15:12.536Z,0.00
2023-08-25T00:16:12.552Z,0.00
2023-08-25T00:17:12.509Z,0.00
2023-08-25T00:18:12.509Z,0.00
2023-08-25T00:19:12.492Z,0.00
2023-08-25T00:20:12.478Z,0.00
2023-08-25T00:21:12.464Z,0.00
2023-08-25T00:22:12.460Z,0.00
2023-08-25T00:23:12.443Z,0.00
2023-08-25T00:24:12.447Z,0.00
2023-08-25T00:25:12.451Z,0.00
2023-08-25T00:26:12.416Z,0.00
2023-08-25T00:27:12.400Z,0.00
2023-08-25T00:28:12.402Z,0.00
2023-08-25T00:29:12.382Z,0.00
2023-08-25T00:30:12.379Z,0.00
2023-08-25T00:31:12.456Z,0.00
2023-08-25T00:32:12.401Z,0.00
2023-08-25T00:33:13.059Z,0.00
2023-08-25T00:34:13.052Z,0.00
2023-08-25T00:35:12.339Z,0.00
2023-08-25T00:36:12.310Z,0.00
2023-08-25T00:37:12.295Z,0.00
2023-08-25T00:38:12.292Z,0.00
2023-08-25T00:39:12.282Z,0.00
2023-08-25T00:40:12.285Z,0.00
2023-08-25T00:41:12.262Z,0.00
2023-08-25T00:42:12.252Z,0.00
2023-08-25T00:43:12.234Z,0.00
2023-08-25T00:44:12.223Z,0.00
2023-08-25T00:45:12.239Z,0.00
2023-08-25T00:46:12.288Z,0.00
2023-08-25T00:47:12.199Z,0.00
2023-08-25T00:48:12.240Z,0.00
2023-08-25T00:49:12.171Z,0.00
2023-08-25T00:50:12.174Z,0.00
2023-08-25T00:51:12.177Z,0.00
2023-08-25T00:52:12.142Z,0.00
2023-08-25T00:53:12.147Z,0.00
2023-08-25T00:54:12.123Z,0.00
2023-08-25T00:55:12.113Z,0.00
2023-08-25T00:56:12.105Z,0.00
2023-08-25T00:57:12.080Z,0.00
2023-08-25T00:58:12.085Z,0.00
2023-08-25T00:59:12.061Z,0.00
2023-08-25T01:00:12.047Z,0.00
2023-08-25T01:01:12.050Z,0.00
2023-08-25T01:02:12.055Z,0.00
2023-08-25T01:03:12.085Z,0.00
2023-08-25T01:04:12.004Z,0.00
2023-08-25T01:05:12.004Z,0.00
2023-08-25T01:06:11.995Z,0.00
2023-08-25T01:07:11.984Z,0.00
2023-08-25T01:08:11.982Z,0.00
2023-08-25T01:09:11.960Z,0.00
2023-08-25T01:10:11.938Z,0.00
2023-08-25T01:11:11.947Z,0.00
2023-08-25T01:12:11.925Z,0.00
2023-08-25T01:13:11.912Z,0.00
2023-08-25T01:14:11.902Z,0.00
2023-08-25T01:15:11.929Z,0.00
2023-08-25T01:16:11.918Z,0.00
2023-08-25T01:17:11.907Z,0.00
2023-08-25T01:18:11.884Z,0.00
2023-08-25T01:19:11.873Z,0.00
2023-08-25T01:20:11.833Z,0.00
2023-08-25T01:21:11.822Z,0.00
2023-08-25T01:22:11.848Z,0.00
2023-08-25T01:23:11.807Z,0.00
2023-08-25T01:24:11.797Z,0.00
2023-08-25T01:25:11.780Z,0.00
2023-08-25T01:26:11.772Z,0.00
2023-08-25T01:27:11.774Z,0.00
2023-08-25T01:28:11.749Z,0.00
2023-08-25T01:29:11.735Z,0.00
2023-08-25T01:30:11.739Z,0.00
2023-08-25T01:31:11.741Z,0.00
2023-08-25T01:32:11.722Z,0.00
2023-08-25T01:33:11.726Z,0.00
2023-08-25T01:34:11.694Z,0.00
2023-08-25T01:35:11.695Z,0.00
2023-08-25T01:36:11.664Z,0.00
2023-08-25T01:37:11.656Z,0.00
2023-08-25T01:38:11.647Z,0.00
2023-08-25T01:39:11.641Z,0.00
2023-08-25T01:40:11.625Z,0.00
2023-08-25T01:41:11.605Z,0.00
2023-08-25T01:42:11.599Z,0.00
2023-08-25T01:43:11.582Z,0.00
2023-08-25T01:44:11.570Z,0.00
2023-08-25T01:45:11.560Z,0.00
2023-08-25T01:46:11.572Z,0.00
2023-08-25T01:47:11.533Z,0.00
2023-08-25T01:48:11.582Z,0.00
2023-08-25T01:49:11.535Z,0.00
2023-08-25T01:50:11.512Z,0.00
2023-08-25T01:51:11.490Z,0.00
2023-08-25T01:52:11.485Z,0.00
2023-08-25T01:53:11.471Z,0.00
2023-08-25T01:54:11.507Z,0.00
2023-08-25T01:55:11.465Z,0.00
2023-08-25T01:56:11.440Z,0.00
2023-08-25T01:57:11.429Z,0.00
2023-08-25T01:58:11.425Z,0.00
2023-08-25T01:59:11.409Z,0.00
2023-08-25T02:00:11.397Z,0.00
2023-08-25T02:01:11.408Z,0.00
2023-08-25T02:02:11.369Z,0.00
2023-08-25T02:03:11.379Z,0.00
2023-08-25T02:04:11.349Z,0.00
2023-08-25T02:05:11.413Z,0.00
2023-08-25T02:06:11.404Z,0.00
2023-08-25T02:07:11.339Z,0.00
2023-08-25T02:08:11.308Z,0.00
2023-08-25T02:09:11.290Z,0.00
2023-08-25T02:10:11.277Z,0.00
2023-08-25T02:11:11.288Z,0.00
2023-08-25T02:12:11.264Z,0.00
2023-08-25T02:13:11.251Z,0.00
2023-08-25T02:14:11.240Z,0.00
2023-08-25T02:15:11.232Z,0.00
2023-08-25T02:16:11.306Z,0.00
2023-08-25T02:17:11.220Z,0.00
2023-08-25T02:18:11.209Z,0.00
2023-08-25T02:19:11.194Z,0.00
2023-08-25T02:20:11.203Z,0.00
2023-08-25T02:21:11.172Z,0.00
2023-08-25T02:22:11.160Z,0.00
2023-08-25T02:23:11.171Z,0.00
2023-08-25T02:24:11.137Z,0.00
2023-08-25T02:25:11.126Z,0.00
2023-08-25T02:26:11.112Z,0.00
2023-08-25T02:27:11.110Z,0.00
2023-08-25T02:28:11.090Z,0.00
2023-08-25T02:29:11.086Z,0.00
2023-08-25T02:30:11.079Z,0.00
2023-08-25T02:31:11.057Z,0.00
2023-08-25T02:32:11.068Z,0.00
2023-08-25T02:33:11.031Z,0.00
2023-08-25T02:34:11.026Z,0.00
2023-08-25T02:35:11.029Z,0.00
2023-08-25T02:36:10.999Z,0.00
2023-08-25T02:37:10.993Z,0.00
2023-08-25T02:38:10.978Z,0.00
2023-08-25T02:39:10.967Z,0.00
2023-08-25T02:40:10.964Z,0.00
2023-08-25T02:41:10.947Z,0.00
2023-08-25T02:42:10.946Z,0.00
2023-08-25T02:43:10.962Z,0.00
2023-08-25T02:44:10.918Z,0.00
2023-08-25T02:45:10.899Z,0.00
2023-08-25T02:46:10.939Z,0.00
2023-08-25T02:47:10.877Z,0.00
2023-08-25T02:48:10.933Z,0.00
2023-08-25T02:49:10.858Z,0.00
2023-08-25T02:50:10.848Z,0.00
2023-08-25T02:51:10.880Z,0.00
2023-08-25T02:52:10.827Z,0.00
2023-08-25T02:53:10.813Z,0.00
2023-08-25T02:54:10.812Z,0.00
2023-08-25T02:55:12.598Z,0.00
2023-08-25T02:56:10.787Z,0.00
2023-08-25T02:57:10.780Z,0.00
2023-08-25T02:58:10.785Z,0.00
2023-08-25T02:59:10.756Z,0.00
2023-08-25T03:00:10.757Z,0.00
2023-08-25T03:01:13.027Z,0.00
2023-08-25T03:02:10.871Z,0.00
2023-08-25T03:03:10.868Z,0.00
2023-08-25T03:04:10.716Z,0.00
2023-08-25T03:05:10.686Z,0.00
2023-08-25T03:06:10.681Z,0.00
2023-08-25T03:07:10.696Z,0.00
2023-08-25T03:08:10.655Z,0.00
2023-08-25T03:09:10.660Z,0.00
2023-08-25T03:10:10.661Z,0.00
2023-08-25T03:11:10.637Z,0.00
2023-08-25T03:12:10.631Z,0.00
2023-08-25T03:13:12.523Z,0.00
2023-08-25T03:14:10.606Z,0.00
2023-08-25T03:15:10.585Z,0.00
2023-08-25T03:16:10.625Z,0.00
2023-08-25T03:17:10.585Z,0.00
2023-08-25T03:18:10.594Z,0.00
2023-08-25T03:19:10.541Z,0.00
2023-08-25T03:20:10.568Z,0.00
2023-08-25T03:21:10.533Z,0.00
2023-08-25T03:22:10.505Z,0.00
2023-08-25T03:23:10.503Z,0.00
2023-08-25T03:24:10.487Z,0.00
2023-08-25T03:25:10.487Z,0.00
2023-08-25T03:26:10.467Z,0.00
2023-08-25T03:27:10.456Z,0.00
2023-08-25T03:28:10.444Z,0.00
2023-08-25T03:29:10.541Z,0.00
2023-08-25T03:30:10.431Z,0.00
2023-08-25T03:31:10.450Z,0.00
2023-08-25T03:32:10.450Z,0.00
2023-08-25T03:33:10.456Z,0.00
2023-08-25T03:34:10.396Z,0.00
2023-08-25T03:35:10.396Z,0.00
2023-08-25T03:36:10.358Z,0.00
2023-08-25T03:37:10.354Z,0.00
2023-08-25T03:38:10.376Z,0.00
2023-08-25T03:39:10.330Z,0.00
2023-08-25T03:40:10.319Z,0.00
2023-08-25T03:41:10.308Z,0.00
2023-08-25T03:42:10.334Z,0.00
2023-08-25T03:43:18.806Z,0.00
2023-08-25T03:45:16.224Z,0.00
2023-08-25T03:46:16.103Z,0.00
2023-08-25T03:47:16.037Z,0.00
2023-08-25T03:48:16.047Z,0.00
2023-08-25T03:49:16.001Z,0.00
2023-08-25T03:50:15.986Z,0.00
2023-08-25T03:51:15.907Z,0.00
2023-08-25T03:52:16.199Z,0.00
2023-08-25T03:53:15.978Z,0.00
2023-08-25T03:54:15.979Z,0.00
2023-08-25T03:55:16.012Z,0.00
2023-08-25T03:56:15.992Z,0.00
2023-08-25T03:57:15.945Z,0.00
2023-08-25T03:58:15.937Z,0.00
2023-08-25T03:59:15.897Z,0.00
2023-08-25T04:00:15.888Z,0.00
2023-08-25T04:01:15.883Z,0.00
2023-08-25T04:02:15.890Z,0.00
2023-08-25T04:03:16.934Z,0.00
2023-08-25T04:04:15.887Z,0.00
2023-08-25T04:05:15.851Z,0.00
2023-08-25T04:06:15.926Z,0.00
2023-08-25T04:07:15.846Z,0.00
2023-08-25T04:08:15.807Z,4.00
2023-08-25T04:09:15.846Z,4.00
2023-08-25T04:10:15.973Z,0.00
2023-08-25T04:11:18.577Z,4.00
2023-08-25T04:12:15.876Z,4.00
2023-08-25T04:13:15.812Z,8.00
2023-08-25T04:14:15.806Z,4.00
2023-08-25T04:15:15.978Z,8.00
2023-08-25T04:16:15.861Z,8.00
2023-08-25T04:17:15.836Z,12.00
2023-08-25T04:18:15.867Z,12.00
2023-08-25T04:19:16.847Z,12.00
2023-08-25T04:20:15.788Z,16.00
2023-08-25T04:21:15.729Z,16.00
2023-08-25T04:22:15.713Z,20.00
2023-08-25T04:23:15.747Z,24.00
2023-08-25T04:24:15.694Z,24.00
2023-08-25T04:25:15.576Z,28.00
2023-08-25T04:26:15.670Z,32.00
2023-08-25T04:27:17.251Z,36.00
2023-08-25T04:28:15.752Z,40.00
2023-08-25T04:29:15.601Z,40.00
2023-08-25T04:30:15.562Z,48.00
2023-08-25T04:31:15.617Z,56.00
2023-08-25T04:32:15.595Z,68.00
2023-08-25T04:33:15.654Z,76.00
2023-08-25T04:34:15.669Z,84.00
2023-08-25T04:35:15.682Z,96.00
2023-08-25T04:36:15.646Z,108.00
2023-08-25T04:37:15.624Z,116.00
2023-08-25T04:38:15.703Z,128.00
2023-08-25T04:39:15.612Z,152.00
2023-08-25T04:40:15.459Z,184.00
2023-08-25T04:41:15.551Z,224.00
2023-08-25T04:42:15.593Z,276.00
2023-08-25T04:43:15.505Z,348.00
2023-08-25T04:44:15.647Z,428.00
2023-08-25T04:45:15.623Z,504.00
2023-08-25T04:46:16.090Z,568.00
2023-08-25T04:47:15.560Z,616.00
2023-08-25T04:48:16.551Z,644.00
2023-08-25T04:49:15.569Z,648.00
2023-08-25T04:50:15.485Z,624.00
2023-08-25T04:51:15.671Z,576.00
2023-08-25T04:52:15.568Z,520.00
2023-08-25T04:53:17.332Z,468.00
2023-08-25T04:54:16.798Z,420.00
2023-08-25T04:55:15.404Z,384.00
2023-08-25T04:56:15.313Z,348.00
2023-08-25T04:57:15.439Z,304.00
2023-08-25T04:58:15.278Z,260.00
2023-08-25T04:59:15.330Z,204.00
2023-08-25T05:00:15.554Z,168.00
2023-08-25T05:01:16.762Z,144.00
2023-08-25T05:02:15.482Z,132.00
2023-08-25T05:03:15.453Z,124.00
2023-08-25T05:04:15.922Z,116.00
2023-08-25T05:05:15.505Z,100.00
2023-08-25T05:06:15.357Z,88.00
2023-08-25T05:07:15.186Z,80.00
2023-08-25T05:08:15.238Z,68.00
2023-08-25T05:09:15.327Z,56.00
2023-08-25T05:10:15.265Z,52.00
2023-08-25T05:11:15.261Z,48.00
2023-08-25T05:12:15.359Z,40.00
2023-08-25T05:13:15.146Z,40.00
2023-08-25T05:14:15.125Z,40.00
2023-08-25T05:15:15.167Z,40.00
2023-08-25T05:16:15.147Z,36.00
2023-08-25T05:17:15.128Z,36.00
2023-08-25T05:18:15.136Z,32.00
2023-08-25T05:19:15.095Z,36.00
2023-08-25T05:20:15.031Z,32.00
2023-08-25T05:21:15.276Z,32.00
2023-08-25T05:22:15.120Z,28.00
2023-08-25T05:23:15.244Z,28.00
2023-08-25T05:24:15.214Z,28.00
2023-08-25T05:25:15.201Z,28.00
2023-08-25T05:26:15.152Z,28.00
2023-08-25T05:27:14.937Z,32.00
2023-08-25T05:28:15.091Z,32.00
2023-08-25T05:29:15.116Z,32.00
2023-08-25T05:30:17.601Z,36.00
2023-08-25T05:31:14.958Z,36.00
2023-08-25T05:32:15.225Z,36.00
2023-08-25T05:33:15.000Z,36.00
2023-08-25T05:34:15.033Z,40.00
2023-08-25T05:35:15.071Z,40.00
2023-08-25T05:36:14.899Z,44.00
2023-08-25T05:37:15.097Z,48.00
2023-08-25T05:38:14.928Z,48.00
2023-08-25T05:39:15.141Z,48.00
2023-08-25T05:40:15.019Z,48.00
2023-08-25T05:41:15.022Z,52.00
2023-08-25T05:42:14.831Z,52.00
2023-08-25T05:43:14.978Z,52.00
2023-08-25T05:44:14.957Z,48.00
2023-08-25T05:45:14.954Z,48.00
2023-08-25T05:46:15.043Z,48.00
2023-08-25T05:47:14.771Z,44.00
2023-08-25T05:48:14.768Z,44.00
2023-08-25T05:49:16.086Z,44.00
2023-08-25T05:50:14.753Z,44.00
2023-08-25T05:51:15.645Z,44.00
2023-08-25T05:52:14.900Z,44.00
2023-08-25T05:53:14.866Z,44.00
2023-08-25T05:54:14.778Z,44.00
2023-08-25T05:55:15.129Z,44.00
2023-08-25T05:56:14.904Z,44.00
2023-08-25T05:57:15.034Z,44.00
2023-08-25T05:58:15.237Z,44.00
2023-08-25T05:59:15.970Z,52.00
2023-08-25T06:00:15.807Z,52.00
2023-08-25T06:01:16.961Z,56.00
2023-08-25T06:02:15.025Z,52.00
2023-08-25T06:03:16.332Z,56.00
2023-08-25T06:04:14.850Z,52.00
2023-08-25T06:05:14.721Z,52.00
2023-08-25T06:06:16.251Z,52.00
2023-08-25T06:07:14.787Z,48.00
2023-08-25T06:08:14.812Z,48.00
2023-08-25T06:09:14.645Z,48.00
2023-08-25T06:10:14.566Z,48.00
2023-08-25T06:11:14.507Z,52.00
2023-08-25T06:12:17.093Z,52.00
2023-08-25T06:13:14.759Z,52.00
2023-08-25T06:14:14.587Z,52.00
2023-08-25T06:15:14.937Z,56.00
2023-08-25T06:16:14.638Z,60.00
2023-08-25T06:17:17.405Z,56.00
2023-08-25T06:18:14.652Z,56.00
2023-08-25T06:19:14.474Z,56.00
2023-08-25T06:20:14.655Z,56.00
2023-08-25T06:21:16.961Z,56.00
2023-08-25T06:22:14.545Z,56.00
2023-08-25T06:23:14.501Z,56.00
2023-08-25T06:24:14.469Z,56.00
2023-08-25T06:25:14.610Z,60.00
2023-08-25T06:26:14.421Z,56.00
2023-08-25T06:27:14.447Z,60.00
2023-08-25T06:28:14.967Z,60.00
2023-08-25T06:29:14.598Z,60.00
2023-08-25T06:30:14.504Z,60.00
2023-08-25T06:31:14.620Z,68.00
2023-08-25T06:32:14.438Z,68.00
2023-08-25T06:33:14.826Z,76.00
2023-08-25T06:34:14.411Z,84.00
2023-08-25T06:35:14.289Z,88.00
2023-08-25T06:36:14.281Z,92.00
2023-08-25T06:37:14.262Z,96.00
2023-08-25T06:38:14.263Z,96.00
2023-08-25T06:39:14.244Z,100.00
2023-08-25T06:40:14.163Z,100.00
2023-08-25T06:41:14.219Z,104.00
2023-08-25T06:42:14.217Z,112.00
2023-08-25T06:43:14.202Z,116.00
2023-08-25T06:44:14.190Z,128.00
2023-08-25T06:45:14.173Z,136.00
2023-08-25T06:46:14.222Z,144.00
2023-08-25T06:47:14.153Z,164.00
2023-08-25T06:48:14.218Z,184.00
2023-08-25T06:49:14.150Z,200.00
2023-08-25T06:50:14.120Z,216.00
2023-08-25T06:51:14.109Z,232.00
2023-08-25T06:52:14.145Z,244.00
2023-08-25T06:53:14.086Z,252.00
2023-08-25T06:54:14.080Z,264.00
2023-08-25T06:55:14.065Z,268.00
2023-08-25T06:56:14.060Z,276.00
2023-08-25T06:57:14.046Z,292.00
2023-08-25T06:58:14.032Z,300.00
2023-08-25T06:59:14.203Z,312.00
2023-08-25T07:00:13.926Z,332.00
2023-08-25T07:01:14.042Z,348.00
2023-08-25T07:02:13.994Z,372.00
2023-08-25T07:03:14.083Z,392.00
2023-08-25T07:04:13.972Z,412.00
2023-08-25T07:05:13.959Z,424.00
2023-08-25T07:06:13.943Z,432.00
2023-08-25T07:07:13.935Z,436.00
2023-08-25T07:08:13.926Z,436.00
2023-08-25T07:09:13.912Z,432.00
2023-08-25T07:10:13.904Z,428.00
2023-08-25T07:11:13.892Z,428.00
2023-08-25T07:12:13.878Z,428.00
2023-08-25T07:13:13.869Z,424.00
2023-08-25T07:14:13.868Z,412.00
2023-08-25T07:15:13.844Z,396.00
2023-08-25T07:16:13.864Z,380.00
2023-08-25T07:17:13.830Z,356.00
2023-08-25T07:18:13.870Z,336.00
2023-08-25T07:19:14.521Z,316.00
2023-08-25T07:20:13.810Z,308.00
2023-08-25T07:21:13.845Z,296.00
2023-08-25T07:22:13.773Z,300.00
2023-08-25T07:23:13.758Z,296.00
2023-08-25T07:24:13.748Z,304.00
2023-08-25T07:25:13.737Z,300.00
2023-08-25T07:26:13.746Z,304.00
2023-08-25T07:27:13.717Z,300.00
2023-08-25T07:28:13.709Z,296.00
2023-08-25T07:29:13.712Z,296.00
2023-08-25T07:30:13.718Z,288.00
2023-08-25T07:31:13.792Z,280.00
2023-08-25T07:32:13.664Z,276.00
2023-08-25T07:33:13.691Z,272.00
2023-08-25T07:34:13.637Z,276.00
2023-08-25T07:35:13.648Z,284.00
2023-08-25T07:36:13.617Z,304.00
2023-08-25T07:37:13.607Z,324.00
2023-08-25T07:38:13.599Z,352.00
2023-08-25T07:39:13.584Z,388.00
2023-08-25T07:40:13.575Z,424.00
2023-08-25T07:41:13.560Z,476.00
2023-08-25T07:42:13.555Z,532.00
2023-08-25T07:43:13.538Z,600.00
2023-08-25T07:44:13.530Z,680.00
2023-08-25T07:45:13.517Z,752.00
2023-08-25T07:46:13.578Z,808.00
2023-08-25T07:47:13.499Z,840.00
2023-08-25T07:48:13.498Z,860.00
2023-08-25T07:49:13.506Z,888.00
2023-08-25T07:50:13.463Z,916.00
2023-08-25T07:51:16.694Z,936.00
2023-08-25T07:52:13.508Z,952.00
2023-08-25T07:53:13.432Z,964.00
2023-08-25T07:54:13.455Z,968.00
2023-08-25T07:55:13.435Z,984.00
2023-08-25T07:56:13.410Z,1000.00
2023-08-25T07:57:13.392Z,1012.00
2023-08-25T07:58:13.444Z,1012.00
2023-08-25T07:59:13.374Z,1012.00
2023-08-25T08:00:13.360Z,1000.00
2023-08-25T08:01:13.378Z,1000.00
2023-08-25T08:02:13.419Z,1028.00
2023-08-25T08:03:13.437Z,1088.00
2023-08-25T08:04:13.363Z,1196.00
2023-08-25T08:05:13.306Z,1364.00
2023-08-25T08:06:13.304Z,1592.00
2023-08-25T08:07:13.289Z,1880.00
2023-08-25T08:08:13.274Z,2216.00
2023-08-25T08:09:13.376Z,2568.00
2023-08-25T08:10:15.150Z,2932.00
2023-08-25T08:11:13.325Z,3300.00
2023-08-25T08:12:13.163Z,3756.00
2023-08-25T08:13:13.222Z,5580.00
2023-08-25T08:14:13.222Z,7468.00
2023-08-25T08:15:13.206Z,5720.00
2023-08-25T08:16:13.223Z,4416.00
2023-08-25T08:17:13.280Z,3732.00
2023-08-25T08:18:13.223Z,3716.00
2023-08-25T08:19:13.172Z,3912.00
2023-08-25T08:20:13.199Z,3724.00
2023-08-25T08:21:13.148Z,3616.00
2023-08-25T08:22:13.196Z,3664.00
2023-08-25T08:23:13.126Z,3724.00
2023-08-25T08:24:13.293Z,3724.00
2023-08-25T08:25:13.180Z,3820.00
2023-08-25T08:26:13.112Z,3880.00
2023-08-25T08:27:13.092Z,3984.00
2023-08-25T08:28:13.094Z,4124.00
2023-08-25T08:29:13.149Z,4340.00
2023-08-25T08:30:13.164Z,4548.00
2023-08-25T08:31:13.172Z,4576.00
2023-08-25T08:32:14.912Z,4968.00
2023-08-25T08:33:13.141Z,5428.00
2023-08-25T08:34:13.044Z,6876.00
2023-08-25T08:35:13.033Z,6164.00
2023-08-25T08:36:13.035Z,5052.00
2023-08-25T08:37:13.025Z,5092.00
2023-08-25T08:38:13.014Z,4412.00
2023-08-25T08:39:12.994Z,3924.00
2023-08-25T08:40:12.995Z,3544.00
2023-08-25T08:41:12.989Z,3388.00
2023-08-25T08:42:12.975Z,3128.00
2023-08-25T08:43:12.965Z,2984.00
2023-08-25T08:44:12.960Z,2928.00
2023-08-25T08:45:12.968Z,2928.00
2023-08-25T08:46:12.980Z,2972.00
2023-08-25T08:47:12.933Z,3056.00
2023-08-25T08:48:12.971Z,3124.00
2023-08-25T08:49:12.917Z,3224.00
2023-08-25T08:50:12.921Z,3224.00
2023-08-25T08:51:12.916Z,3200.00
2023-08-25T08:52:12.896Z,3120.00
2023-08-25T08:53:12.892Z,3164.00
2023-08-25T08:54:12.938Z,2584.00
2023-08-25T08:55:12.966Z,2448.00
2023-08-25T08:56:12.943Z,2448.00
2023-08-25T08:57:12.878Z,3220.00
2023-08-25T08:58:12.858Z,2400.00
2023-08-25T08:59:12.858Z,2644.00
2023-08-25T09:00:12.842Z,2788.00
2023-08-25T09:01:12.887Z,3032.00
2023-08-25T09:02:12.818Z,3508.00
2023-08-25T09:03:12.818Z,11748.00
2023-08-25T09:04:12.804Z,12860.00
2023-08-25T09:05:12.841Z,13984.00
2023-08-25T09:06:12.797Z,13412.00
2023-08-25T09:07:12.783Z,15968.00
2023-08-25T09:08:12.772Z,5336.00
2023-08-25T09:09:12.762Z,4756.00
2023-08-25T09:10:12.794Z,4496.00
2023-08-25T09:11:12.751Z,5504.00
2023-08-25T09:12:12.748Z,4660.00
2023-08-25T09:13:12.741Z,4584.00
2023-08-25T09:14:12.731Z,6908.00
2023-08-25T09:15:12.722Z,11908.00
2023-08-25T09:16:12.780Z,23968.00
2023-08-25T09:17:12.708Z,13976.00
2023-08-25T09:18:12.728Z,19808.00
2023-08-25T09:19:12.702Z,11236.00
2023-08-25T09:20:12.695Z,11276.00
2023-08-25T09:21:12.688Z,8748.00
2023-08-25T09:22:12.701Z,8216.00
2023-08-25T09:23:12.687Z,9192.00
2023-08-25T09:24:12.776Z,14316.00
2023-08-25T09:25:12.777Z,15072.00
2023-08-25T09:26:12.763Z,12216.00
2023-08-25T09:27:12.763Z,15840.00
2023-08-25T09:28:12.779Z,15124.00
2023-08-25T09:29:12.771Z,16512.00
2023-08-25T09:30:12.753Z,10784.00
2023-08-25T09:31:12.759Z,11956.00
2023-08-25T09:32:13.743Z,10856.00
2023-08-25T09:33:12.800Z,10828.00
2023-08-25T09:34:12.732Z,13796.00
2023-08-25T09:35:12.804Z,20768.00
2023-08-25T09:36:12.763Z,21440.00
2023-08-25T09:37:12.719Z,19680.00
2023-08-25T09:38:12.647Z,19424.00
2023-08-25T09:39:12.713Z,21312.00
2023-08-25T09:40:12.714Z,20544.00
2023-08-25T09:41:13.657Z,18688.00
2023-08-25T09:42:12.717Z,18208.00
2023-08-25T09:43:12.708Z,18592.00
2023-08-25T09:44:13.357Z,21472.00
2023-08-25T09:45:12.741Z,21632.00
2023-08-25T09:46:12.733Z,21184.00
2023-08-25T09:47:12.700Z,21856.00
2023-08-25T09:48:12.732Z,23552.00
2023-08-25T09:49:12.705Z,24192.00
2023-08-25T09:50:12.714Z,22624.00
2023-08-25T09:51:12.740Z,23424.00
2023-08-25T09:52:12.711Z,22336.00
2023-08-25T09:53:12.728Z,21280.00
2023-08-25T09:54:12.707Z,21248.00
2023-08-25T09:55:12.709Z,21536.00
2023-08-25T09:57:12.749Z,17952.00
2023-08-25T09:58:12.638Z,18176.00
2023-08-25T09:59:12.756Z,17440.00
2023-08-25T10:00:12.640Z,18240.00
2023-08-25T10:01:12.832Z,19744.00
2023-08-25T10:02:12.716Z,21408.00
2023-08-25T10:03:33.755Z,19808.00
2023-08-25T10:04:12.668Z,19776.00
2023-08-25T10:05:12.836Z,19104.00
2023-08-25T10:06:12.649Z,16864.00
2023-08-25T10:07:12.760Z,14324.00
2023-08-25T10:08:12.644Z,10704.00
2023-08-25T10:09:33.790Z,7204.00
2023-08-25T10:10:12.652Z,5420.00
2023-08-25T10:11:14.259Z,4864.00
2023-08-25T10:12:12.636Z,5124.00
2023-08-25T10:13:12.757Z,5916.00
2023-08-25T10:14:12.643Z,5728.00
2023-08-25T10:15:33.878Z,4872.00
2023-08-25T10:16:12.831Z,5824.00
2023-08-25T10:17:13.030Z,6312.00
2023-08-25T10:18:12.708Z,6168.00
2023-08-25T10:19:12.747Z,6500.00
2023-08-25T10:20:12.688Z,6984.00
2023-08-25T10:21:33.746Z,7264.00
2023-08-25T10:22:12.727Z,7064.00
2023-08-25T10:23:12.750Z,6704.00
2023-08-25T10:24:12.672Z,7168.00
2023-08-25T10:25:12.804Z,7248.00
2023-08-25T10:26:13.643Z,6200.00
2023-08-25T10:27:33.836Z,6000.00
2023-08-25T10:28:12.655Z,6068.00
2023-08-25T10:29:12.721Z,6300.00
2023-08-25T10:30:12.637Z,6176.00
2023-08-25T10:31:12.731Z,6268.00
2023-08-25T10:32:12.614Z,5444.00
2023-08-25T10:33:33.760Z,5244.00
2023-08-25T10:34:12.601Z,4904.00
2023-08-25T10:35:12.702Z,4692.00
2023-08-25T10:36:12.597Z,4264.00
2023-08-25T10:37:12.693Z,5440.00
2023-08-25T10:38:12.581Z,5776.00
2023-08-25T10:39:33.691Z,6220.00
2023-08-25T10:40:12.583Z,6984.00
2023-08-25T10:41:12.682Z,7864.00
2023-08-25T10:42:12.569Z,7948.00
2023-08-25T10:43:12.677Z,7404.00
2023-08-25T10:44:12.660Z,6880.00
2023-08-25T10:45:33.715Z,7100.00
2023-08-25T10:46:12.663Z,7032.00
2023-08-25T10:47:12.677Z,7952.00
2023-08-25T10:48:17.769Z,8032.00
2023-08-25T10:49:12.541Z,8664.00
2023-08-25T10:50:12.731Z,8448.00
2023-08-25T10:51:33.789Z,8396.00
2023-08-25T10:52:12.522Z,7780.00
2023-08-25T10:53:12.653Z,7504.00
2023-08-25T10:54:12.608Z,6520.00
2023-08-25T10:55:12.607Z,6032.00
2023-08-25T10:56:12.606Z,6140.00
2023-08-25T10:57:33.637Z,5768.00
2023-08-25T10:58:12.496Z,5568.00
2023-08-25T10:59:12.674Z,4944.00
2023-08-25T11:00:12.598Z,4416.00
2023-08-25T11:01:12.690Z,4104.00
2023-08-25T11:02:12.588Z,3796.00
2023-08-25T11:03:33.761Z,3616.00
2023-08-25T11:04:12.746Z,3468.00
2023-08-25T11:05:12.566Z,3328.00
2023-08-25T11:06:12.567Z,3236.00
2023-08-25T11:07:15.352Z,3236.00
2023-08-25T11:08:12.556Z,3236.00
2023-08-25T11:09:34.476Z,3336.00
2023-08-25T11:10:12.441Z,3404.00
2023-08-25T11:11:12.613Z,3432.00
2023-08-25T11:12:12.537Z,3564.00
2023-08-25T11:13:12.576Z,3552.00
2023-08-25T11:14:12.518Z,3548.00
2023-08-25T11:15:33.611Z,3408.00
2023-08-25T11:16:12.436Z,3332.00
2023-08-25T11:17:14.008Z,3224.00
2023-08-25T11:18:12.558Z,3148.00
2023-08-25T11:19:12.502Z,3104.00
2023-08-25T11:20:12.497Z,3116.00
2023-08-25T11:21:33.495Z,3180.00
2023-08-25T11:22:12.711Z,3212.00
2023-08-25T11:23:19.912Z,3180.00
2023-08-25T11:24:12.473Z,3192.00
2023-08-25T11:25:12.585Z,3156.00
2023-08-25T11:26:12.562Z,3124.00
2023-08-25T11:27:33.563Z,3060.00
2023-08-25T11:28:12.453Z,2968.00
2023-08-25T11:29:12.441Z,2856.00
2023-08-25T11:30:12.436Z,2708.00
2023-08-25T11:31:12.538Z,2584.00
2023-08-25T11:32:12.431Z,2488.00
2023-08-25T11:33:33.446Z,2420.00
2023-08-25T11:34:13.811Z,2384.00
2023-08-25T11:35:13.304Z,2368.00
2023-08-25T11:36:12.402Z,2356.00
2023-08-25T11:37:12.410Z,2348.00
2023-08-25T11:38:12.390Z,2352.00
2023-08-25T11:39:33.421Z,2392.00
2023-08-25T11:40:12.374Z,2448.00
2023-08-25T11:41:12.405Z,2524.00
2023-08-25T11:42:12.365Z,2648.00
2023-08-25T11:43:12.397Z,2760.00
2023-08-25T11:44:12.365Z,2728.00
2023-08-25T11:45:33.367Z,2668.00
2023-08-25T11:46:12.442Z,2612.00
2023-08-25T11:47:12.425Z,2604.00
2023-08-25T11:48:12.356Z,2636.00
2023-08-25T11:49:12.343Z,2672.00
2023-08-25T11:50:12.316Z,2740.00
2023-08-25T11:51:33.328Z,2868.00
2023-08-25T11:52:12.315Z,3092.00
2023-08-25T11:53:12.324Z,3464.00
2023-08-25T11:54:12.340Z,3824.00
2023-08-25T11:55:12.287Z,3924.00
2023-08-25T11:56:12.278Z,4056.00
2023-08-25T11:57:33.274Z,4120.00
2023-08-25T11:58:12.257Z,4028.00
2023-08-25T11:59:12.273Z,3892.00
2023-08-25T12:00:12.248Z,3760.00
2023-08-25T12:01:12.313Z,3788.00
2023-08-25T12:02:12.244Z,3900.00
2023-08-25T12:03:33.389Z,4084.00
2023-08-25T12:04:12.335Z,4280.00
2023-08-25T12:05:13.094Z,4432.00
2023-08-25T12:06:12.211Z,4584.00
2023-08-25T12:07:13.227Z,5376.00
2023-08-25T12:08:12.236Z,7092.00
2023-08-25T12:09:33.225Z,7648.00
2023-08-25T12:10:12.234Z,7892.00
2023-08-25T12:11:12.217Z,7556.00
2023-08-25T12:12:12.191Z,7060.00
2023-08-25T12:13:12.184Z,6692.00
2023-08-25T12:14:12.193Z,5672.00
2023-08-25T12:15:33.173Z,5232.00
2023-08-25T12:16:12.177Z,5956.00
2023-08-25T12:17:12.155Z,6448.00
2023-08-25T12:18:12.078Z,6916.00
2023-08-25T12:19:12.141Z,8028.00
2023-08-25T12:20:12.035Z,8092.00
2023-08-25T12:21:33.145Z,8696.00
2023-08-25T12:22:12.015Z,8088.00
2023-08-25T12:23:12.117Z,8328.00
2023-08-25T12:24:12.015Z,7076.00
2023-08-25T12:25:12.213Z,7376.00
2023-08-25T12:26:13.424Z,5556.00
2023-08-25T12:27:33.119Z,4848.00
2023-08-25T12:28:12.032Z,4464.00
2023-08-25T12:29:12.104Z,4300.00
2023-08-25T12:30:12.042Z,4224.00
2023-08-25T12:31:12.212Z,4152.00
2023-08-25T12:32:11.980Z,4036.00
2023-08-25T12:33:32.987Z,3976.00
2023-08-25T12:34:11.966Z,3900.00
2023-08-25T12:35:12.077Z,3744.00
2023-08-25T12:36:11.957Z,3572.00
2023-08-25T12:37:12.060Z,3416.00
2023-08-25T12:38:11.948Z,3224.00
2023-08-25T12:39:33.163Z,3056.00